DSI weather

Destin Executive Airport
Destin, Florida, United States

Public forecast

Using degrees Fahrenheit for public forecast. Weather courtesy of forecast.io.

METAR (pilot weather report)

Retrieved 2019/06/19 21:53 UTC (29 minutes ago):

KDTS 192153Z 24007KT 210V270 10SM CLR 30/24 A2987 RMK AO2 SLP113 T03000239

TAF (pilot weather forecast)

Closest forecast is Destin-Ft Walton Beach Airport, 5.7 nm (10.6 km) NNW. Retrieved 2019/06/19 17:12 UTC (5 hours ago):

TAF TAF KVPS 191700Z 1917/2023 22012G18KT 9999 SCT025 SCT100 QNH2988INS BECMG 1923/1924 22009KT 9999 SCT015 QNH2986INS BECMG 2012/2013 24010G15KT 9999 BKN020 QNH2985INS BECMG 2016/2017 23015G20KT 9999 VCSH SCT025 BKN250 QNH2985INS TX32/1919Z TN23/2011Z